Terminal Aerodrome Forecast
Issued by NWS Sterling, VA

Current Version | Previous Version | Graphics & Text | Print | Product List | Glossary On
Versions: 1 2 3 4 5 6 7 8 9 10 11 12 13 14 15 16 17
000
FTUS41 KLWX 301559 AAC
TAFMRB
TAF AMD
KMRB 301559Z 3016/3112 28010KT P6SM SCT030 BKN070
      TEMPO 3016/3018 2SM -TSRA BKN050CB
     FM301800 28012KT P6SM SCT060
     FM302200 30008KT P6SM FEW100
     FM310700 VRB04KT P6SM SKC=

USA.gov is the U.S. government's official web portal to all federal, state and local government web resources and services.